Terminal Aerodrome Forecast
Issued by NWS Duluth, MN

Home | Current Version | Previous Version | Graphics & Text | Print | Product List | Glossary On
Versions: 1 2 3 4 5 6 7 8 9 10 11 12 13 14 15 16 17 18 19 20 21 22 23 24 25 26
000
FTUS43 KDLH 111700
TAFINL
TAF
KINL 111728Z 1118/1218 22010KT P6SM VCTS BKN016CB OVC028
      TEMPO 1118/1120 5SM -TSRA OVC028CB
     FM112000 27011KT P6SM VCTS BKN025CB BKN050
     FM112300 28009G15KT P6SM BKN250
     FM120300 29006KT P6SM SCT250
     FM121400 27012KT P6SM SCT040=

USA.gov is the U.S. government's official web portal to all federal, state and local government web resources and services.